Terminal Aerodrome Forecast
Issued by NWS

Home | Current Version | Previous Version | Text Only | Print | Product List | Glossary On
Versions: 1 2 3 4 5 6 7 8 9 10 11 12 13 14 15
000
FTUS43 KTOP 040520
TAFMHK
TAF
KMHK 040520Z 0406/0506 VRB03KT 3SM -RA OVC008
     FM041400 28004KT 4SM BR BKN015
     FM041600 28004KT P6SM SCT100=

USA.gov is the U.S. government's official web portal to all federal, state and local government web resources and services.